sensor_id;sensor_type;location;lat;lon;timestamp;temperature;humidity
7530;DHT22;3806;52.270;10.544;2023-06-14T00:01:43;18.30;47.20
7530;DHT22;3806;52.270;10.544;2023-06-14T00:04:11;18.30;47.30
7530;DHT22;3806;52.270;10.544;2023-06-14T00:06:38;18.20;47.40
7530;DHT22;3806;52.270;10.544;2023-06-14T00:09:03;18.10;47.50
7530;DHT22;3806;52.270;10.544;2023-06-14T00:11:30;18.10;47.70
7530;DHT22;3806;52.270;10.544;2023-06-14T00:13:56;18.00;47.80
7530;DHT22;3806;52.270;10.544;2023-06-14T00:16:21;18.10;48.10
7530;DHT22;3806;52.270;10.544;2023-06-14T00:18:48;18.00;48.00
7530;DHT22;3806;52.270;10.544;2023-06-14T00:21:13;18.00;48.20
7530;DHT22;3806;52.270;10.544;2023-06-14T00:23:39;18.00;48.50
7530;DHT22;3806;52.270;10.544;2023-06-14T00:26:05;18.00;48.40
7530;DHT22;3806;52.270;10.544;2023-06-14T00:28:30;18.00;48.50
7530;DHT22;3806;52.270;10.544;2023-06-14T00:30:56;17.90;48.70
7530;DHT22;3806;52.270;10.544;2023-06-14T00:33:21;17.90;48.90
7530;DHT22;3806;52.270;10.544;2023-06-14T00:35:47;17.80;48.90
7530;DHT22;3806;52.270;10.544;2023-06-14T00:38:13;17.70;49.10
7530;DHT22;3806;52.270;10.544;2023-06-14T00:40:38;17.70;49.40
7530;DHT22;3806;52.270;10.544;2023-06-14T00:43:04;17.70;49.70
7530;DHT22;3806;52.270;10.544;2023-06-14T00:45:29;17.60;49.80
7530;DHT22;3806;52.270;10.544;2023-06-14T00:47:56;17.50;50.00
7530;DHT22;3806;52.270;10.544;2023-06-14T00:50:23;17.50;50.30
7530;DHT22;3806;52.270;10.544;2023-06-14T00:52:49;17.40;50.50
7530;DHT22;3806;52.270;10.544;2023-06-14T00:55:15;17.40;50.60
7530;DHT22;3806;52.270;10.544;2023-06-14T00:57:40;17.30;50.90
7530;DHT22;3806;52.270;10.544;2023-06-14T01:00:07;17.20;51.10
7530;DHT22;3806;52.270;10.544;2023-06-14T01:02:38;17.20;51.30
7530;DHT22;3806;52.270;10.544;2023-06-14T01:05:05;17.10;51.50
7530;DHT22;3806;52.270;10.544;2023-06-14T01:10:56;17.00;51.90
7530;DHT22;3806;52.270;10.544;2023-06-14T01:13:35;17.00;52.20
7530;DHT22;3806;52.270;10.544;2023-06-14T01:16:02;17.00;52.60
7530;DHT22;3806;52.270;10.544;2023-06-14T01:18:29;17.00;52.80
7530;DHT22;3806;52.270;10.544;2023-06-14T01:20:55;17.00;53.00
7530;DHT22;3806;52.270;10.544;2023-06-14T01:23:22;17.00;53.20
7530;DHT22;3806;52.270;10.544;2023-06-14T01:25:49;16.90;53.40
7530;DHT22;3806;52.270;10.544;2023-06-14T01:28:19;16.90;53.60
7530;DHT22;3806;52.270;10.544;2023-06-14T01:30:50;16.80;53.80
7530;DHT22;3806;52.270;10.544;2023-06-14T01:33:20;16.80;54.40
7530;DHT22;3806;52.270;10.544;2023-06-14T01:35:50;16.70;54.50
7530;DHT22;3806;52.270;10.544;2023-06-14T01:38:17;16.70;54.70
7530;DHT22;3806;52.270;10.544;2023-06-14T01:40:44;16.70;55.00
7530;DHT22;3806;52.270;10.544;2023-06-14T01:43:11;16.70;55.20
7530;DHT22;3806;52.270;10.544;2023-06-14T01:45:39;16.70;55.50
7530;DHT22;3806;52.270;10.544;2023-06-14T01:48:05;16.80;55.70
7530;DHT22;3806;52.270;10.544;2023-06-14T01:50:31;16.80;56.00
7530;DHT22;3806;52.270;10.544;2023-06-14T01:52:57;16.80;56.20
7530;DHT22;3806;52.270;10.544;2023-06-14T01:55:23;16.80;56.40
7530;DHT22;3806;52.270;10.544;2023-06-14T01:57:50;16.80;56.40
7530;DHT22;3806;52.270;10.544;2023-06-14T02:00:16;16.80;56.40
7530;DHT22;3806;52.270;10.544;2023-06-14T02:02:43;16.80;56.40
7530;DHT22;3806;52.270;10.544;2023-06-14T02:05:09;16.80;56.50
7530;DHT22;3806;52.270;10.544;2023-06-14T02:07:36;16.70;56.50
7530;DHT22;3806;52.270;10.544;2023-06-14T02:10:02;16.70;56.80
7530;DHT22;3806;52.270;10.544;2023-06-14T02:12:28;16.60;56.70
7530;DHT22;3806;52.270;10.544;2023-06-14T02:14:53;16.60;56.90
7530;DHT22;3806;52.270;10.544;2023-06-14T02:17:19;16.50;57.10
7530;DHT22;3806;52.270;10.544;2023-06-14T02:19:45;16.60;57.40
7530;DHT22;3806;52.270;10.544;2023-06-14T02:22:11;16.50;57.40
7530;DHT22;3806;52.270;10.544;2023-06-14T02:24:36;16.40;57.80
7530;DHT22;3806;52.270;10.544;2023-06-14T02:27:02;16.30;58.20
7530;DHT22;3806;52.270;10.544;2023-06-14T02:29:28;16.30;58.50
7530;DHT22;3806;52.270;10.544;2023-06-14T02:31:54;16.20;58.90
7530;DHT22;3806;52.270;10.544;2023-06-14T02:34:19;16.20;59.30
7530;DHT22;3806;52.270;10.544;2023-06-14T02:36:47;16.20;59.70
7530;DHT22;3806;52.270;10.544;2023-06-14T02:39:13;16.10;59.90
7530;DHT22;3806;52.270;10.544;2023-06-14T02:41:38;16.10;60.20
7530;DHT22;3806;52.270;10.544;2023-06-14T02:44:04;16.10;60.70
7530;DHT22;3806;52.270;10.544;2023-06-14T02:46:30;16.10;61.10
7530;DHT22;3806;52.270;10.544;2023-06-14T02:48:55;16.10;61.50
7530;DHT22;3806;52.270;10.544;2023-06-14T02:51:21;16.10;62.10
7530;DHT22;3806;52.270;10.544;2023-06-14T02:53:46;16.00;62.40
7530;DHT22;3806;52.270;10.544;2023-06-14T02:56:12;16.00;62.90
7530;DHT22;3806;52.270;10.544;2023-06-14T02:58:38;16.00;63.40
7530;DHT22;3806;52.270;10.544;2023-06-14T03:01:05;15.90;63.90
7530;DHT22;3806;52.270;10.544;2023-06-14T03:03:31;15.90;64.30
7530;DHT22;3806;52.270;10.544;2023-06-14T03:05:56;15.90;65.10
7530;DHT22;3806;52.270;10.544;2023-06-14T03:08:22;15.80;65.80
7530;DHT22;3806;52.270;10.544;2023-06-14T03:10:52;15.80;66.80
7530;DHT22;3806;52.270;10.544;2023-06-14T03:13:18;15.80;67.60
7530;DHT22;3806;52.270;10.544;2023-06-14T03:15:47;15.80;68.40
7530;DHT22;3806;52.270;10.544;2023-06-14T03:18:13;15.80;68.80
7530;DHT22;3806;52.270;10.544;2023-06-14T03:20:40;15.70;69.30
7530;DHT22;3806;52.270;10.544;2023-06-14T03:23:06;15.80;69.90
7530;DHT22;3806;52.270;10.544;2023-06-14T03:25:32;15.60;70.10
7530;DHT22;3806;52.270;10.544;2023-06-14T03:28:01;15.70;70.70
7530;DHT22;3806;52.270;10.544;2023-06-14T03:30:27;15.70;71.20
7530;DHT22;3806;52.270;10.544;2023-06-14T03:32:52;15.70;71.40
7530;DHT22;3806;52.270;10.544;2023-06-14T03:35:21;15.70;71.80
7530;DHT22;3806;52.270;10.544;2023-06-14T03:37:47;15.60;72.30
7530;DHT22;3806;52.270;10.544;2023-06-14T03:40:14;15.70;73.00
7530;DHT22;3806;52.270;10.544;2023-06-14T03:42:40;15.70;73.30
7530;DHT22;3806;52.270;10.544;2023-06-14T03:45:08;15.60;73.50
7530;DHT22;3806;52.270;10.544;2023-06-14T03:47:34;15.60;74.40
7530;DHT22;3806;52.270;10.544;2023-06-14T03:50:00;15.50;74.70
7530;DHT22;3806;52.270;10.544;2023-06-14T03:52:26;15.40;75.20
7530;DHT22;3806;52.270;10.544;2023-06-14T03:54:52;15.40;76.10
7530;DHT22;3806;52.270;10.544;2023-06-14T03:57:18;15.40;76.80
7530;DHT22;3806;52.270;10.544;2023-06-14T03:59:44;15.40;77.00
7530;DHT22;3806;52.270;10.544;2023-06-14T04:02:09;15.40;77.30
7530;DHT22;3806;52.270;10.544;2023-06-14T04:04:35;15.40;77.70
7530;DHT22;3806;52.270;10.544;2023-06-14T04:07:01;15.50;78.20
7530;DHT22;3806;52.270;10.544;2023-06-14T04:09:29;15.50;78.50
7530;DHT22;3806;52.270;10.544;2023-06-14T04:11:54;15.50;78.80
7530;DHT22;3806;52.270;10.544;2023-06-14T04:14:21;15.60;79.20
7530;DHT22;3806;52.270;10.544;2023-06-14T04:16:48;15.70;79.50
7530;DHT22;3806;52.270;10.544;2023-06-14T04:19:14;15.70;79.20
7530;DHT22;3806;52.270;10.544;2023-06-14T04:21:40;15.90;78.90
7530;DHT22;3806;52.270;10.544;2023-06-14T04:24:06;16.00;78.90
7530;DHT22;3806;52.270;10.544;2023-06-14T04:26:32;16.30;78.50
7530;DHT22;3806;52.270;10.544;2023-06-14T04:28:59;16.60;77.60
7530;DHT22;3806;52.270;10.544;2023-06-14T04:31:28;17.00;76.10
7530;DHT22;3806;52.270;10.544;2023-06-14T04:33:55;17.40;73.90
7530;DHT22;3806;52.270;10.544;2023-06-14T04:36:20;17.70;72.20
7530;DHT22;3806;52.270;10.544;2023-06-14T04:38:46;18.10;70.90
7530;DHT22;3806;52.270;10.544;2023-06-14T04:41:12;18.50;68.40
7530;DHT22;3806;52.270;10.544;2023-06-14T04:43:38;18.80;66.40
7530;DHT22;3806;52.270;10.544;2023-06-14T04:46:07;19.10;65.20
7530;DHT22;3806;52.270;10.544;2023-06-14T04:48:40;19.40;62.90
7530;DHT22;3806;52.270;10.544;2023-06-14T04:51:08;19.60;61.60
7530;DHT22;3806;52.270;10.544;2023-06-14T04:53:34;19.90;61.10
7530;DHT22;3806;52.270;10.544;2023-06-14T04:55:59;20.20;60.20
7530;DHT22;3806;52.270;10.544;2023-06-14T04:58:26;20.70;59.50
7530;DHT22;3806;52.270;10.544;2023-06-14T05:00:52;21.10;57.70
7530;DHT22;3806;52.270;10.544;2023-06-14T05:03:18;21.60;56.70
7530;DHT22;3806;52.270;10.544;2023-06-14T05:05:46;22.00;55.10
7530;DHT22;3806;52.270;10.544;2023-06-14T05:08:12;22.50;54.10
7530;DHT22;3806;52.270;10.544;2023-06-14T05:10:38;22.80;53.30
7530;DHT22;3806;52.270;10.544;2023-06-14T05:13:03;23.30;52.80
7530;DHT22;3806;52.270;10.544;2023-06-14T05:15:29;23.80;51.90
7530;DHT22;3806;52.270;10.544;2023-06-14T05:17:55;24.20;50.60
7530;DHT22;3806;52.270;10.544;2023-06-14T05:20:24;24.50;49.20
7530;DHT22;3806;52.270;10.544;2023-06-14T05:22:53;24.80;48.40
7530;DHT22;3806;52.270;10.544;2023-06-14T05:25:22;25.10;47.70
7530;DHT22;3806;52.270;10.544;2023-06-14T05:27:48;25.50;46.80
7530;DHT22;3806;52.270;10.544;2023-06-14T05:30:15;25.70;45.40
7530;DHT22;3806;52.270;10.544;2023-06-14T05:32:41;26.00;45.10
7530;DHT22;3806;52.270;10.544;2023-06-14T05:35:07;26.40;44.50
7530;DHT22;3806;52.270;10.544;2023-06-14T05:37:33;26.70;43.10
7530;DHT22;3806;52.270;10.544;2023-06-14T05:39:58;27.10;42.60
7530;DHT22;3806;52.270;10.544;2023-06-14T05:42:24;27.60;42.10
7530;DHT22;3806;52.270;10.544;2023-06-14T05:44:49;28.00;40.80
7530;DHT22;3806;52.270;10.544;2023-06-14T05:47:15;28.20;39.80
7530;DHT22;3806;52.270;10.544;2023-06-14T05:49:41;28.50;39.30
7530;DHT22;3806;52.270;10.544;2023-06-14T05:52:07;28.90;38.70
7530;DHT22;3806;52.270;10.544;2023-06-14T05:54:33;29.20;38.30
7530;DHT22;3806;52.270;10.544;2023-06-14T05:56:58;29.10;37.10
7530;DHT22;3806;52.270;10.544;2023-06-14T05:59:29;29.20;37.00
7530;DHT22;3806;52.270;10.544;2023-06-14T06:01:55;29.40;36.80
7530;DHT22;3806;52.270;10.544;2023-06-14T06:04:20;29.70;36.80
7530;DHT22;3806;52.270;10.544;2023-06-14T06:06:46;30.10;35.80
7530;DHT22;3806;52.270;10.544;2023-06-14T06:09:13;30.40;34.90
7530;DHT22;3806;52.270;10.544;2023-06-14T06:11:40;30.40;34.90
7530;DHT22;3806;52.270;10.544;2023-06-14T06:14:05;30.60;34.70
7530;DHT22;3806;52.270;10.544;2023-06-14T06:16:31;30.90;34.50
7530;DHT22;3806;52.270;10.544;2023-06-14T06:18:57;31.10;33.80
7530;DHT22;3806;52.270;10.544;2023-06-14T06:21:22;31.30;33.70
7530;DHT22;3806;52.270;10.544;2023-06-14T06:23:48;31.10;33.40
7530;DHT22;3806;52.270;10.544;2023-06-14T06:26:13;30.60;33.50
7530;DHT22;3806;52.270;10.544;2023-06-14T06:28:39;29.90;34.30
7530;DHT22;3806;52.270;10.544;2023-06-14T06:31:04;29.30;35.20
7530;DHT22;3806;52.270;10.544;2023-06-14T06:33:30;28.90;36.10
7530;DHT22;3806;52.270;10.544;2023-06-14T06:35:56;28.50;36.40
7530;DHT22;3806;52.270;10.544;2023-06-14T06:38:21;28.40;36.70
7530;DHT22;3806;52.270;10.544;2023-06-14T06:40:47;28.30;37.20
7530;DHT22;3806;52.270;10.544;2023-06-14T06:43:12;28.00;36.90
7530;DHT22;3806;52.270;10.544;2023-06-14T06:45:42;27.60;37.30
7530;DHT22;3806;52.270;10.544;2023-06-14T06:48:08;26.90;38.50
7530;DHT22;3806;52.270;10.544;2023-06-14T06:50:35;26.30;39.50
7530;DHT22;3806;52.270;10.544;2023-06-14T06:53:01;25.80;40.40
7530;DHT22;3806;52.270;10.544;2023-06-14T06:55:26;25.50;41.50
7530;DHT22;3806;52.270;10.544;2023-06-14T06:57:52;25.20;41.90
7530;DHT22;3806;52.270;10.544;2023-06-14T07:00:19;24.80;42.20
7530;DHT22;3806;52.270;10.544;2023-06-14T07:02:45;24.60;42.60
7530;DHT22;3806;52.270;10.544;2023-06-14T07:05:11;24.50;42.90
7530;DHT22;3806;52.270;10.544;2023-06-14T07:07:36;24.40;43.30
7530;DHT22;3806;52.270;10.544;2023-06-14T07:10:03;24.20;43.10
7530;DHT22;3806;52.270;10.544;2023-06-14T07:12:31;24.00;42.90
7530;DHT22;3806;52.270;10.544;2023-06-14T07:14:59;23.80;43.80
7530;DHT22;3806;52.270;10.544;2023-06-14T07:17:24;23.50;44.10
7530;DHT22;3806;52.270;10.544;2023-06-14T07:19:50;23.40;44.20
7530;DHT22;3806;52.270;10.544;2023-06-14T07:22:16;23.30;44.90
7530;DHT22;3806;52.270;10.544;2023-06-14T07:24:42;23.10;45.20
7530;DHT22;3806;52.270;10.544;2023-06-14T07:27:08;23.30;45.30
7530;DHT22;3806;52.270;10.544;2023-06-14T07:29:33;23.20;44.70
7530;DHT22;3806;52.270;10.544;2023-06-14T07:31:59;23.20;44.80
7530;DHT22;3806;52.270;10.544;2023-06-14T07:34:24;23.10;44.80
7530;DHT22;3806;52.270;10.544;2023-06-14T07:36:51;23.00;44.60
7530;DHT22;3806;52.270;10.544;2023-06-14T07:39:16;22.90;45.30
7530;DHT22;3806;52.270;10.544;2023-06-14T07:41:42;22.90;45.90
7530;DHT22;3806;52.270;10.544;2023-06-14T07:44:08;23.10;45.40
7530;DHT22;3806;52.270;10.544;2023-06-14T07:46:33;23.20;45.20
7530;DHT22;3806;52.270;10.544;2023-06-14T07:49:00;23.30;45.30
7530;DHT22;3806;52.270;10.544;2023-06-14T07:51:26;23.50;45.20
7530;DHT22;3806;52.270;10.544;2023-06-14T07:53:51;23.60;45.60
7530;DHT22;3806;52.270;10.544;2023-06-14T07:56:17;23.60;44.20
7530;DHT22;3806;52.270;10.544;2023-06-14T07:58:42;23.70;44.60
7530;DHT22;3806;52.270;10.544;2023-06-14T08:01:08;23.60;43.50
7530;DHT22;3806;52.270;10.544;2023-06-14T08:03:34;23.40;43.80
7530;DHT22;3806;52.270;10.544;2023-06-14T08:06:00;23.40;44.90
7530;DHT22;3806;52.270;10.544;2023-06-14T08:08:26;23.40;44.70
7530;DHT22;3806;52.270;10.544;2023-06-14T08:10:52;23.40;44.40
7530;DHT22;3806;52.270;10.544;2023-06-14T08:13:17;23.50;44.40
7530;DHT22;3806;52.270;10.544;2023-06-14T08:15:43;23.60;44.80
7530;DHT22;3806;52.270;10.544;2023-06-14T08:18:09;23.80;45.10
7530;DHT22;3806;52.270;10.544;2023-06-14T08:20:35;23.90;44.80
7530;DHT22;3806;52.270;10.544;2023-06-14T08:23:02;24.10;44.80
7530;DHT22;3806;52.270;10.544;2023-06-14T08:25:29;24.30;44.30
7530;DHT22;3806;52.270;10.544;2023-06-14T08:27:55;24.50;44.00
7530;DHT22;3806;52.270;10.544;2023-06-14T08:30:21;24.60;43.40
7530;DHT22;3806;52.270;10.544;2023-06-14T08:32:47;24.50;42.90
7530;DHT22;3806;52.270;10.544;2023-06-14T08:35:13;24.50;43.20
7530;DHT22;3806;52.270;10.544;2023-06-14T08:37:41;24.60;43.50
7530;DHT22;3806;52.270;10.544;2023-06-14T08:40:27;24.60;42.10
7530;DHT22;3806;52.270;10.544;2023-06-14T08:42:55;24.50;41.60
7530;DHT22;3806;52.270;10.544;2023-06-14T08:45:21;24.50;41.90
7530;DHT22;3806;52.270;10.544;2023-06-14T08:47:48;24.50;42.60
7530;DHT22;3806;52.270;10.544;2023-06-14T08:50:26;24.70;42.50
7530;DHT22;3806;52.270;10.544;2023-06-14T08:52:56;24.60;41.10
7530;DHT22;3806;52.270;10.544;2023-06-14T08:55:27;24.40;41.90
7530;DHT22;3806;52.270;10.544;2023-06-14T08:57:57;24.40;42.30
7530;DHT22;3806;52.270;10.544;2023-06-14T09:00:27;24.60;42.20
7530;DHT22;3806;52.270;10.544;2023-06-14T09:02:53;24.60;41.60
7530;DHT22;3806;52.270;10.544;2023-06-14T09:05:24;24.60;41.10
7530;DHT22;3806;52.270;10.544;2023-06-14T09:07:49;24.60;41.00
7530;DHT22;3806;52.270;10.544;2023-06-14T09:10:16;24.50;41.40
7530;DHT22;3806;52.270;10.544;2023-06-14T09:12:42;24.60;41.40
7530;DHT22;3806;52.270;10.544;2023-06-14T09:15:08;24.80;41.50
7530;DHT22;3806;52.270;10.544;2023-06-14T09:17:38;24.90;40.80
7530;DHT22;3806;52.270;10.544;2023-06-14T09:20:06;25.00;40.90
7530;DHT22;3806;52.270;10.544;2023-06-14T09:22:33;25.00;40.40
7530;DHT22;3806;52.270;10.544;2023-06-14T09:24:59;25.00;41.00
7530;DHT22;3806;52.270;10.544;2023-06-14T09:27:26;25.10;40.30
7530;DHT22;3806;52.270;10.544;2023-06-14T09:29:52;25.00;40.20
7530;DHT22;3806;52.270;10.544;2023-06-14T09:32:17;25.10;40.50
7530;DHT22;3806;52.270;10.544;2023-06-14T09:34:43;25.10;40.70
7530;DHT22;3806;52.270;10.544;2023-06-14T09:37:09;25.20;40.40
7530;DHT22;3806;52.270;10.544;2023-06-14T09:39:34;25.10;40.20
7530;DHT22;3806;52.270;10.544;2023-06-14T09:42:00;25.00;40.60
7530;DHT22;3806;52.270;10.544;2023-06-14T09:44:25;24.90;40.40
7530;DHT22;3806;52.270;10.544;2023-06-14T09:46:55;24.80;40.20
7530;DHT22;3806;52.270;10.544;2023-06-14T09:49:21;24.80;40.90
7530;DHT22;3806;52.270;10.544;2023-06-14T09:51:51;25.00;41.20
7530;DHT22;3806;52.270;10.544;2023-06-14T09:54:22;25.20;41.50
7530;DHT22;3806;52.270;10.544;2023-06-14T09:56:48;25.40;40.30
7530;DHT22;3806;52.270;10.544;2023-06-14T09:59:19;25.50;39.90
7530;DHT22;3806;52.270;10.544;2023-06-14T10:01:47;25.70;40.00
7530;DHT22;3806;52.270;10.544;2023-06-14T10:04:13;25.80;39.70
7530;DHT22;3806;52.270;10.544;2023-06-14T10:06:43;25.90;39.20
7530;DHT22;3806;52.270;10.544;2023-06-14T10:09:11;26.10;39.70
7530;DHT22;3806;52.270;10.544;2023-06-14T10:11:37;26.20;38.40
7530;DHT22;3806;52.270;10.544;2023-06-14T10:14:10;26.10;38.90
7530;DHT22;3806;52.270;10.544;2023-06-14T10:19:45;25.80;38.60
7530;DHT22;3806;52.270;10.544;2023-06-14T10:22:18;25.80;38.70
7530;DHT22;3806;52.270;10.544;2023-06-14T10:24:45;25.80;38.80
7530;DHT22;3806;52.270;10.544;2023-06-14T10:27:14;25.80;39.00
7530;DHT22;3806;52.270;10.544;2023-06-14T10:32:24;25.40;39.80
7530;DHT22;3806;52.270;10.544;2023-06-14T10:35:02;25.30;40.20
7530;DHT22;3806;52.270;10.544;2023-06-14T10:37:29;25.40;40.10
7530;DHT22;3806;52.270;10.544;2023-06-14T10:39:55;25.70;39.70
7530;DHT22;3806;52.270;10.544;2023-06-14T10:42:21;25.80;39.70
7530;DHT22;3806;52.270;10.544;2023-06-14T10:44:52;25.90;39.70
7530;DHT22;3806;52.270;10.544;2023-06-14T10:47:29;25.90;39.70
7530;DHT22;3806;52.270;10.544;2023-06-14T10:50:03;26.00;40.10
7530;DHT22;3806;52.270;10.544;2023-06-14T10:52:30;26.00;39.70
7530;DHT22;3806;52.270;10.544;2023-06-14T10:55:14;25.90;39.70
7530;DHT22;3806;52.270;10.544;2023-06-14T10:57:49;26.10;39.70
7530;DHT22;3806;52.270;10.544;2023-06-14T11:00:22;26.10;39.70
7530;DHT22;3806;52.270;10.544;2023-06-14T11:05:54;25.70;40.20
7530;DHT22;3806;52.270;10.544;2023-06-14T11:11:23;25.20;41.30
7530;DHT22;3806;52.270;10.544;2023-06-14T11:13:51;24.90;41.70
7530;DHT22;3806;52.270;10.544;2023-06-14T11:16:17;24.90;42.30
7530;DHT22;3806;52.270;10.544;2023-06-14T11:18:44;25.10;42.30
7530;DHT22;3806;52.270;10.544;2023-06-14T11:21:11;25.40;41.70
7530;DHT22;3806;52.270;10.544;2023-06-14T11:23:36;25.50;41.20
7530;DHT22;3806;52.270;10.544;2023-06-14T11:26:02;25.50;41.20
7530;DHT22;3806;52.270;10.544;2023-06-14T11:28:40;25.30;41.30
7530;DHT22;3806;52.270;10.544;2023-06-14T11:31:06;25.10;41.40
7530;DHT22;3806;52.270;10.544;2023-06-14T11:33:32;24.90;41.70
7530;DHT22;3806;52.270;10.544;2023-06-14T11:35:58;25.00;42.50
7530;DHT22;3806;52.270;10.544;2023-06-14T11:38:24;25.20;42.60
7530;DHT22;3806;52.270;10.544;2023-06-14T11:40:50;25.40;42.30
7530;DHT22;3806;52.270;10.544;2023-06-14T11:43:15;25.30;41.40
7530;DHT22;3806;52.270;10.544;2023-06-14T11:45:41;25.20;41.60
7530;DHT22;3806;52.270;10.544;2023-06-14T11:48:07;25.10;42.10
7530;DHT22;3806;52.270;10.544;2023-06-14T11:50:32;25.10;42.70
7530;DHT22;3806;52.270;10.544;2023-06-14T11:53:02;25.00;42.50
7530;DHT22;3806;52.270;10.544;2023-06-14T11:55:39;25.00;42.30
7530;DHT22;3806;52.270;10.544;2023-06-14T11:58:05;25.10;41.40
7530;DHT22;3806;52.270;10.544;2023-06-14T12:00:31;25.20;41.20
7530;DHT22;3806;52.270;10.544;2023-06-14T12:02:59;25.10;41.10
7530;DHT22;3806;52.270;10.544;2023-06-14T12:05:25;25.00;41.90
7530;DHT22;3806;52.270;10.544;2023-06-14T12:08:01;24.90;41.90
7530;DHT22;3806;52.270;10.544;2023-06-14T12:10:28;24.80;42.30
7530;DHT22;3806;52.270;10.544;2023-06-14T12:12:57;24.80;43.20
7530;DHT22;3806;52.270;10.544;2023-06-14T12:15:23;24.60;42.90
7530;DHT22;3806;52.270;10.544;2023-06-14T12:17:49;24.60;42.70
7530;DHT22;3806;52.270;10.544;2023-06-14T12:20:16;24.60;43.20
7530;DHT22;3806;52.270;10.544;2023-06-14T12:22:58;24.60;43.30
7530;DHT22;3806;52.270;10.544;2023-06-14T12:25:35;24.70;43.30
7530;DHT22;3806;52.270;10.544;2023-06-14T12:28:06;24.80;42.30
7530;DHT22;3806;52.270;10.544;2023-06-14T12:30:32;24.70;41.60
7530;DHT22;3806;52.270;10.544;2023-06-14T12:32:57;24.70;41.50
7530;DHT22;3806;52.270;10.544;2023-06-14T12:35:23;24.60;41.60
7530;DHT22;3806;52.270;10.544;2023-06-14T12:37:48;24.60;41.80
7530;DHT22;3806;52.270;10.544;2023-06-14T12:40:14;24.60;42.10
7530;DHT22;3806;52.270;10.544;2023-06-14T12:42:40;24.70;42.70
7530;DHT22;3806;52.270;10.544;2023-06-14T12:45:06;24.70;42.40
7530;DHT22;3806;52.270;10.544;2023-06-14T12:47:32;24.80;42.50
7530;DHT22;3806;52.270;10.544;2023-06-14T12:49:57;24.70;41.90
7530;DHT22;3806;52.270;10.544;2023-06-14T12:52:23;24.90;42.20
7530;DHT22;3806;52.270;10.544;2023-06-14T12:54:50;24.80;41.80
7530;DHT22;3806;52.270;10.544;2023-06-14T12:57:15;24.70;42.10
7530;DHT22;3806;52.270;10.544;2023-06-14T12:59:41;24.60;41.70
7530;DHT22;3806;52.270;10.544;2023-06-14T13:04:38;24.60;42.50
7530;DHT22;3806;52.270;10.544;2023-06-14T13:07:03;24.50;42.20
7530;DHT22;3806;52.270;10.544;2023-06-14T13:09:29;24.50;42.60
7530;DHT22;3806;52.270;10.544;2023-06-14T13:11:54;24.40;42.40
7530;DHT22;3806;52.270;10.544;2023-06-14T13:14:20;24.40;42.50
7530;DHT22;3806;52.270;10.544;2023-06-14T13:16:46;24.30;42.60
7530;DHT22;3806;52.270;10.544;2023-06-14T13:19:11;24.20;42.70
7530;DHT22;3806;52.270;10.544;2023-06-14T13:21:37;24.10;42.20
7530;DHT22;3806;52.270;10.544;2023-06-14T13:24:02;24.00;42.60
7530;DHT22;3806;52.270;10.544;2023-06-14T13:26:28;23.80;42.80
7530;DHT22;3806;52.270;10.544;2023-06-14T13:28:53;23.80;43.30
7530;DHT22;3806;52.270;10.544;2023-06-14T13:31:19;23.70;43.90
7530;DHT22;3806;52.270;10.544;2023-06-14T13:33:44;23.80;43.50
7530;DHT22;3806;52.270;10.544;2023-06-14T13:36:10;23.80;43.40
7530;DHT22;3806;52.270;10.544;2023-06-14T13:38:35;23.80;43.50
7530;DHT22;3806;52.270;10.544;2023-06-14T13:41:01;23.80;43.50
7530;DHT22;3806;52.270;10.544;2023-06-14T13:43:26;23.80;43.70
7530;DHT22;3806;52.270;10.544;2023-06-14T13:45:52;23.80;43.70
7530;DHT22;3806;52.270;10.544;2023-06-14T13:48:17;23.70;44.00
7530;DHT22;3806;52.270;10.544;2023-06-14T13:50:43;23.80;43.80
7530;DHT22;3806;52.270;10.544;2023-06-14T13:53:09;23.80;44.00
7530;DHT22;3806;52.270;10.544;2023-06-14T13:55:35;23.70;43.80
7530;DHT22;3806;52.270;10.544;2023-06-14T13:58:00;23.70;43.90
7530;DHT22;3806;52.270;10.544;2023-06-14T14:00:26;23.80;44.30
7530;DHT22;3806;52.270;10.544;2023-06-14T14:02:52;23.80;44.00
7530;DHT22;3806;52.270;10.544;2023-06-14T14:05:17;23.90;44.40
7530;DHT22;3806;52.270;10.544;2023-06-14T14:07:43;24.00;44.40
7530;DHT22;3806;52.270;10.544;2023-06-14T14:10:09;24.20;44.50
7530;DHT22;3806;52.270;10.544;2023-06-14T14:12:35;24.30;44.00
7530;DHT22;3806;52.270;10.544;2023-06-14T14:15:00;24.30;43.30
7530;DHT22;3806;52.270;10.544;2023-06-14T14:17:25;24.40;43.00
7530;DHT22;3806;52.270;10.544;2023-06-14T14:19:51;24.40;42.60
7530;DHT22;3806;52.270;10.544;2023-06-14T14:22:17;24.40;42.60
7530;DHT22;3806;52.270;10.544;2023-06-14T14:24:42;24.50;43.00
7530;DHT22;3806;52.270;10.544;2023-06-14T14:27:08;24.50;42.40
7530;DHT22;3806;52.270;10.544;2023-06-14T14:29:33;24.60;42.30
7530;DHT22;3806;52.270;10.544;2023-06-14T14:31:59;24.60;42.20
7530;DHT22;3806;52.270;10.544;2023-06-14T14:34:25;24.70;42.20
7530;DHT22;3806;52.270;10.544;2023-06-14T14:36:50;24.70;42.50
7530;DHT22;3806;52.270;10.544;2023-06-14T14:39:16;24.70;42.10
7530;DHT22;3806;52.270;10.544;2023-06-14T14:41:42;24.60;42.20
7530;DHT22;3806;52.270;10.544;2023-06-14T14:44:07;24.60;42.40
7530;DHT22;3806;52.270;10.544;2023-06-14T14:46:33;24.60;42.50
7530;DHT22;3806;52.270;10.544;2023-06-14T14:48:59;24.60;42.50
7530;DHT22;3806;52.270;10.544;2023-06-14T14:51:25;24.50;42.40
7530;DHT22;3806;52.270;10.544;2023-06-14T14:53:51;24.40;42.60
7530;DHT22;3806;52.270;10.544;2023-06-14T14:56:16;24.30;42.40
7530;DHT22;3806;52.270;10.544;2023-06-14T14:58:42;24.30;42.50
7530;DHT22;3806;52.270;10.544;2023-06-14T15:01:08;24.30;42.90
7530;DHT22;3806;52.270;10.544;2023-06-14T15:03:33;24.40;43.10
7530;DHT22;3806;52.270;10.544;2023-06-14T15:05:59;24.40;42.90
7530;DHT22;3806;52.270;10.544;2023-06-14T15:08:24;24.40;42.60
7530;DHT22;3806;52.270;10.544;2023-06-14T15:10:50;24.50;42.50
7530;DHT22;3806;52.270;10.544;2023-06-14T15:13:15;24.60;42.30
7530;DHT22;3806;52.270;10.544;2023-06-14T15:15:41;24.60;41.10
7530;DHT22;3806;52.270;10.544;2023-06-14T15:18:06;24.70;40.70
7530;DHT22;3806;52.270;10.544;2023-06-14T15:20:32;24.80;41.20
7530;DHT22;3806;52.270;10.544;2023-06-14T15:22:58;24.80;40.60
7530;DHT22;3806;52.270;10.544;2023-06-14T15:25:28;24.90;40.20
7530;DHT22;3806;52.270;10.544;2023-06-14T15:27:54;24.90;39.70
7530;DHT22;3806;52.270;10.544;2023-06-14T15:30:20;24.90;40.20
7530;DHT22;3806;52.270;10.544;2023-06-14T15:32:45;24.80;40.40
7530;DHT22;3806;52.270;10.544;2023-06-14T15:35:11;24.70;40.90
7530;DHT22;3806;52.270;10.544;2023-06-14T15:37:37;24.70;40.60
7530;DHT22;3806;52.270;10.544;2023-06-14T15:40:04;24.50;40.50
7530;DHT22;3806;52.270;10.544;2023-06-14T15:42:29;24.40;40.90
7530;DHT22;3806;52.270;10.544;2023-06-14T15:44:55;24.30;40.50
7530;DHT22;3806;52.270;10.544;2023-06-14T15:47:20;24.10;40.80
7530;DHT22;3806;52.270;10.544;2023-06-14T15:49:46;24.00;41.10
7530;DHT22;3806;52.270;10.544;2023-06-14T15:52:11;23.90;41.50
7530;DHT22;3806;52.270;10.544;2023-06-14T15:54:37;23.80;41.70
7530;DHT22;3806;52.270;10.544;2023-06-14T15:57:03;23.70;41.60
7530;DHT22;3806;52.270;10.544;2023-06-14T15:59:28;23.70;41.70